createdAt,value
2022-12-19T00:01:31.056Z,1021.9
2022-12-19T00:03:30.814Z,1021.9
2022-12-19T00:05:30.666Z,1021.9
2022-12-19T00:07:30.674Z,1022
2022-12-19T00:09:30.683Z,1022
2022-12-19T00:11:30.689Z,1022.1
2022-12-19T00:13:31.193Z,1022.1
2022-12-19T00:15:30.669Z,1022.2
2022-12-19T00:17:30.667Z,1022.2
2022-12-19T00:19:30.650Z,1022.2
2022-12-19T00:21:30.673Z,1022.3
2022-12-19T00:23:30.652Z,1022.3
2022-12-19T00:25:30.656Z,1022.3
2022-12-19T00:27:31.898Z,1022.4
2022-12-19T00:29:30.670Z,1022.4
2022-12-19T00:31:30.730Z,1022.4
2022-12-19T00:33:30.646Z,1022.5
2022-12-19T00:35:30.655Z,1022.5
2022-12-19T00:37:30.646Z,1022.6
2022-12-19T00:39:30.670Z,1022.6
2022-12-19T00:41:33.251Z,1022.6
2022-12-19T00:43:30.720Z,1022.6
2022-12-19T00:45:30.760Z,1022.6
2022-12-19T00:47:30.767Z,1022.7
2022-12-19T00:49:55.327Z,1022.8
2022-12-19T00:51:30.743Z,1022.8
2022-12-19T00:53:41.233Z,1022.8
2022-12-19T00:54:31.766Z,1022.8
2022-12-19T00:55:30.698Z,1022.8
2022-12-19T00:57:35.146Z,1022.9
2022-12-19T00:58:19.743Z,1022.9
2022-12-19T00:58:56.443Z,1022.9
2022-12-19T01:00:04.019Z,1022.9
2022-12-19T01:02:03.911Z,1023
2022-12-19T01:04:27.534Z,1023
2022-12-19T01:06:06.573Z,1023
2022-12-19T01:08:11.093Z,1023
2022-12-19T01:10:04.508Z,1023.1
2022-12-19T01:12:03.897Z,1023.1
2022-12-19T01:14:03.834Z,1023.1
2022-12-19T01:16:03.851Z,1023.1
2022-12-19T01:18:10.455Z,1023.2
2022-12-19T01:18:39.898Z,1023.2
2022-12-19T01:19:43.916Z,1023.2
2022-12-19T01:21:39.493Z,1023.2
2022-12-19T01:23:39.454Z,1023.2
2022-12-19T01:25:40.119Z,1023.2
2022-12-19T01:27:39.404Z,1023.2
2022-12-19T01:29:45.553Z,1023.2
2022-12-19T01:31:39.474Z,1023.3
2022-12-19T01:33:39.391Z,1023.3
2022-12-19T01:35:39.374Z,1023.3
2022-12-19T01:37:39.365Z,1023.3
2022-12-19T01:39:39.357Z,1023.4
2022-12-19T01:41:39.359Z,1023.4
2022-12-19T01:43:39.352Z,1023.5
2022-12-19T01:45:45.286Z,1023.5
2022-12-19T01:47:39.356Z,1023.5
2022-12-19T01:49:39.372Z,1023.5
2022-12-19T01:51:39.354Z,1023.6
2022-12-19T01:53:48.285Z,1023.6
2022-12-19T01:55:39.450Z,1023.6
2022-12-19T01:57:39.329Z,1023.6
2022-12-19T01:59:39.318Z,1023.7
2022-12-19T02:01:41.914Z,1023.7
2022-12-19T02:03:39.316Z,1023.7
2022-12-19T02:05:39.316Z,1023.7
2022-12-19T02:07:39.437Z,1023.7
2022-12-19T02:09:39.333Z,1023.7
2022-12-19T02:11:39.307Z,1023.8
2022-12-19T02:13:39.331Z,1023.8
2022-12-19T02:15:39.329Z,1023.9
2022-12-19T02:17:39.296Z,1023.9
2022-12-19T02:19:39.274Z,1023.9
2022-12-19T02:21:39.290Z,1023.9
2022-12-19T02:23:39.305Z,1023.9
2022-12-19T02:25:39.295Z,1024
2022-12-19T02:27:40.260Z,1024
2022-12-19T02:29:39.311Z,1024
2022-12-19T02:31:39.344Z,1024.1
2022-12-19T02:33:39.262Z,1024.1
2022-12-19T02:35:39.285Z,1024.1
2022-12-19T02:37:39.269Z,1024.1
2022-12-19T02:39:39.278Z,1024.1
2022-12-19T02:41:39.279Z,1024.1
2022-12-19T02:43:40.369Z,1024.1
2022-12-19T02:45:39.354Z,1024.1
2022-12-19T02:47:39.290Z,1024.2
2022-12-19T02:49:39.253Z,1024.2
2022-12-19T02:51:39.267Z,1024.2
2022-12-19T02:53:39.250Z,1024.3
2022-12-19T02:55:39.279Z,1024.3
2022-12-19T02:57:39.268Z,1024.3
2022-12-19T02:59:39.268Z,1024.4
2022-12-19T03:01:39.398Z,1024.4
2022-12-19T03:03:39.291Z,1024.5
2022-12-19T03:05:39.254Z,1024.5
2022-12-19T03:07:39.238Z,1024.5
2022-12-19T03:09:39.335Z,1024.6
2022-12-19T03:11:39.250Z,1024.6
2022-12-19T03:13:39.260Z,1024.6
2022-12-19T03:15:39.247Z,1024.6
2022-12-19T03:17:39.267Z,1024.7
2022-12-19T03:19:39.243Z,1024.7
2022-12-19T03:21:39.218Z,1024.7
2022-12-19T03:23:39.333Z,1024.7
2022-12-19T03:25:39.216Z,1024.7
2022-12-19T03:27:39.231Z,1024.7
2022-12-19T03:29:39.243Z,1024.8
2022-12-19T03:31:39.256Z,1024.9
2022-12-19T03:33:41.693Z,1024.9
2022-12-19T03:35:39.248Z,1025
2022-12-19T03:37:39.234Z,1025
2022-12-19T03:39:39.227Z,1025
2022-12-19T03:41:39.223Z,1025
2022-12-19T03:43:39.215Z,1025.1
2022-12-19T03:45:39.273Z,1025.1
2022-12-19T03:47:39.224Z,1025.2
2022-12-19T03:49:39.262Z,1025.2
2022-12-19T03:51:39.267Z,1025.2
2022-12-19T03:53:39.229Z,1025.3
2022-12-19T03:55:39.229Z,1025.3
2022-12-19T03:57:39.243Z,1025.4
2022-12-19T03:59:39.217Z,1025.4
2022-12-19T04:01:39.326Z,1025.5
2022-12-19T04:03:39.256Z,1025.5
2022-12-19T04:05:39.199Z,1025.5
2022-12-19T04:07:39.217Z,1025.6
2022-12-19T04:09:39.191Z,1025.6
2022-12-19T04:11:39.232Z,1025.6
2022-12-19T04:13:39.202Z,1025.6
2022-12-19T04:15:39.228Z,1025.6
2022-12-19T04:17:39.180Z,1025.6
2022-12-19T04:19:42.531Z,1025.6
2022-12-19T04:21:40.303Z,1025.6
2022-12-19T04:23:41.793Z,1025.6
2022-12-19T04:25:39.167Z,1025.7
2022-12-19T04:27:39.266Z,1025.7
2022-12-19T04:29:39.308Z,1025.8
2022-12-19T04:31:39.270Z,1025.7
2022-12-19T04:33:39.188Z,1025.7
2022-12-19T04:35:39.264Z,1025.7
2022-12-19T04:37:40.523Z,1025.6
2022-12-19T04:39:39.283Z,1025.6
2022-12-19T04:41:39.249Z,1025.6
2022-12-19T04:43:39.232Z,1025.7
2022-12-19T04:45:39.156Z,1025.7
2022-12-19T04:47:39.142Z,1025.7
2022-12-19T04:49:39.191Z,1025.6
2022-12-19T04:51:39.190Z,1025.7
2022-12-19T04:53:39.183Z,1025.7
2022-12-19T04:55:39.162Z,1025.8
2022-12-19T04:57:39.135Z,1025.8
2022-12-19T04:59:39.138Z,1025.8
2022-12-19T05:01:39.208Z,1025.8
2022-12-19T05:03:39.133Z,1025.8
2022-12-19T05:05:39.106Z,1025.8
2022-12-19T05:07:39.100Z,1025.8
2022-12-19T05:09:39.139Z,1025.8
2022-12-19T05:11:39.157Z,1025.8
2022-12-19T05:13:39.099Z,1025.8
2022-12-19T05:15:39.194Z,1025.8
2022-12-19T05:17:39.116Z,1025.8
2022-12-19T05:19:39.085Z,1025.8
2022-12-19T05:21:39.177Z,1025.9
2022-12-19T05:23:39.089Z,1025.9
2022-12-19T05:25:39.076Z,1025.9
2022-12-19T05:27:39.120Z,1025.9
2022-12-19T05:29:39.075Z,1025.9
2022-12-19T05:31:39.180Z,1025.9
2022-12-19T05:33:39.108Z,1025.9
2022-12-19T05:35:39.088Z,1025.9
2022-12-19T05:37:39.084Z,1026
2022-12-19T05:39:39.059Z,1026
2022-12-19T05:41:39.051Z,1025.9
2022-12-19T05:43:39.090Z,1025.9
2022-12-19T05:45:39.078Z,1025.9
2022-12-19T05:47:39.059Z,1026
2022-12-19T05:49:39.062Z,1026
2022-12-19T05:51:39.055Z,1026
2022-12-19T05:53:39.085Z,1026
2022-12-19T05:55:39.058Z,1026.1
2022-12-19T05:57:39.026Z,1026.1
2022-12-19T05:59:39.049Z,1026.1
2022-12-19T06:01:39.066Z,1026.2
2022-12-19T06:03:39.100Z,1026.2
2022-12-19T06:05:39.055Z,1026.2
2022-12-19T06:07:39.077Z,1026.2
2022-12-19T06:09:39.087Z,1026.3
2022-12-19T06:11:39.027Z,1026.2
2022-12-19T06:13:40.530Z,1026.2
2022-12-19T06:15:39.030Z,1026.2
2022-12-19T06:17:39.066Z,1026.2
2022-12-19T06:19:39.011Z,1026.3
2022-12-19T06:21:42.422Z,1026.3
2022-12-19T06:23:38.980Z,1026.3
2022-12-19T06:25:38.993Z,1026.3
2022-12-19T06:27:39.017Z,1026.4
2022-12-19T06:29:38.992Z,1026.4
2022-12-19T06:31:39.058Z,1026.4
2022-12-19T06:33:38.991Z,1026.4
2022-12-19T06:35:38.977Z,1026.4
2022-12-19T06:37:39.581Z,1026.4
2022-12-19T06:39:39.002Z,1026.5
2022-12-19T06:41:39.016Z,1026.5
2022-12-19T06:43:38.989Z,1026.5
2022-12-19T06:45:39.095Z,1026.5
2022-12-19T06:47:41.476Z,1026.5
2022-12-19T06:49:39.003Z,1026.5
2022-12-19T06:51:38.992Z,1026.5
2022-12-19T06:53:38.977Z,1026.5
2022-12-19T06:55:38.987Z,1026.5
2022-12-19T06:57:38.952Z,1026.5
2022-12-19T06:59:38.966Z,1026.5
2022-12-19T07:01:39.050Z,1026.6
2022-12-19T07:03:38.970Z,1026.6
2022-12-19T07:05:38.989Z,1026.6
2022-12-19T07:07:38.946Z,1026.7
2022-12-19T07:09:39.037Z,1026.7
2022-12-19T07:11:38.966Z,1026.7
2022-12-19T07:13:38.960Z,1026.8
2022-12-19T07:15:38.941Z,1026.8
2022-12-19T07:17:38.917Z,1026.8
2022-12-19T07:19:38.932Z,1026.8
2022-12-19T07:21:39.007Z,1026.9
2022-12-19T07:23:38.972Z,1026.9
2022-12-19T07:25:39.108Z,1026.9
2022-12-19T07:27:38.902Z,1026.9
2022-12-19T07:29:38.928Z,1026.9
2022-12-19T07:31:38.994Z,1026.9
2022-12-19T07:33:38.927Z,1026.9
2022-12-19T07:35:38.920Z,1026.9
2022-12-19T07:37:38.921Z,1027
2022-12-19T07:39:38.925Z,1027
2022-12-19T07:41:38.930Z,1027.1
2022-12-19T07:43:38.938Z,1027.1
2022-12-19T07:45:38.938Z,1027.1
2022-12-19T07:47:38.921Z,1027.1
2022-12-19T07:49:38.895Z,1027.1
2022-12-19T07:51:38.911Z,1027.1
2022-12-19T07:53:38.892Z,1027.2
2022-12-19T07:55:38.891Z,1027.2
2022-12-19T07:57:38.869Z,1027.2
2022-12-19T07:59:39.357Z,1027.2
2022-12-19T08:01:38.918Z,1027.2
2022-12-19T08:03:38.910Z,1027.2
2022-12-19T08:05:38.896Z,1027.2
2022-12-19T08:07:38.894Z,1027.2
2022-12-19T08:09:38.879Z,1027.3
2022-12-19T08:11:38.843Z,1027.3
2022-12-19T08:13:43.231Z,1027.3
2022-12-19T08:15:38.877Z,1027.3
2022-12-19T08:17:39.038Z,1027.2
2022-12-19T08:19:38.921Z,1027.2
2022-12-19T08:21:38.854Z,1027.2
2022-12-19T08:23:38.890Z,1027.3
2022-12-19T08:25:38.927Z,1027.3
2022-12-19T08:27:38.868Z,1027.3
2022-12-19T08:29:38.838Z,1027.3
2022-12-19T08:31:38.844Z,1027.3
2022-12-19T08:33:38.858Z,1027.3
2022-12-19T08:35:38.825Z,1027.3
2022-12-19T08:37:38.884Z,1027.3
2022-12-19T08:39:38.799Z,1027.4
2022-12-19T08:41:38.842Z,1027.4
2022-12-19T08:43:38.825Z,1027.4
2022-12-19T08:45:38.822Z,1027.5
2022-12-19T08:47:38.813Z,1027.4
2022-12-19T08:49:38.818Z,1027.5
2022-12-19T08:51:38.786Z,1027.5
2022-12-19T08:53:38.825Z,1027.5
2022-12-19T08:55:38.832Z,1027.5
2022-12-19T08:57:38.836Z,1027.5
2022-12-19T08:59:38.812Z,1027.5
2022-12-19T09:01:38.923Z,1027.6
2022-12-19T09:03:42.762Z,1027.6
2022-12-19T09:05:58.980Z,1027.6
2022-12-19T09:07:39.002Z,1027.7
2022-12-19T09:09:38.794Z,1027.7
2022-12-19T09:11:40.899Z,1027.7
2022-12-19T09:13:38.793Z,1027.7
2022-12-19T09:15:38.777Z,1027.7
2022-12-19T09:17:38.773Z,1027.7
2022-12-19T09:19:38.802Z,1027.7
2022-12-19T09:21:38.866Z,1027.7
2022-12-19T09:23:38.787Z,1027.7
2022-12-19T09:25:38.768Z,1027.7
2022-12-19T09:28:01.579Z,1027.8
2022-12-19T09:29:38.774Z,1027.8
2022-12-19T09:31:38.758Z,1027.8
2022-12-19T09:33:43.291Z,1027.8
2022-12-19T09:35:38.747Z,1027.8
2022-12-19T09:37:38.746Z,1027.8
2022-12-19T09:39:38.748Z,1027.8
2022-12-19T09:41:38.742Z,1027.8
2022-12-19T09:43:41.366Z,1027.8
2022-12-19T09:45:38.761Z,1027.8
2022-12-19T09:47:38.891Z,1027.8
2022-12-19T09:49:39.864Z,1027.8
2022-12-19T09:51:38.750Z,1027.8
2022-12-19T09:53:38.743Z,1027.8
2022-12-19T09:55:38.753Z,1027.8
2022-12-19T09:57:38.731Z,1027.8
2022-12-19T09:59:41.663Z,1027.9
2022-12-19T10:01:41.344Z,1027.9
2022-12-19T10:03:40.166Z,1027.9
2022-12-19T10:06:21.776Z,1027.9
2022-12-19T10:08:01.703Z,1027.9
2022-12-19T10:10:53.785Z,1027.9
2022-12-19T10:12:37.074Z,1028
2022-12-19T10:13:38.843Z,1028.1
2022-12-19T10:15:38.783Z,1028.1
2022-12-19T10:17:38.712Z,1028.1
2022-12-19T10:19:38.691Z,1028.1
2022-12-19T10:22:07.987Z,1028.1
2022-12-19T10:23:38.941Z,1028.2
2022-12-19T10:25:38.677Z,1028.2
2022-12-19T10:27:38.681Z,1028.3
2022-12-19T10:29:39.935Z,1028.3
2022-12-19T10:31:38.781Z,1028.4
2022-12-19T10:33:40.060Z,1028.4
2022-12-19T10:35:38.673Z,1028.5
2022-12-19T10:37:45.533Z,1028.5
2022-12-19T10:39:38.669Z,1028.5
2022-12-19T10:41:43.949Z,1028.6
2022-12-19T10:43:42.609Z,1028.6
2022-12-19T10:45:38.678Z,1028.6
2022-12-19T10:47:38.643Z,1028.6
2022-12-19T10:49:38.669Z,1028.6
2022-12-19T10:51:38.661Z,1028.6
2022-12-19T10:53:38.679Z,1028.7
2022-12-19T10:55:38.660Z,1028.7
2022-12-19T10:57:38.650Z,1028.8
2022-12-19T10:59:38.634Z,1028.7
2022-12-19T11:01:38.799Z,1028.7
2022-12-19T11:03:38.762Z,1028.7
2022-12-19T11:05:38.766Z,1028.7
2022-12-19T11:07:38.659Z,1028.7
2022-12-19T11:09:38.639Z,1028.7
2022-12-19T11:12:24.253Z,1028.7
2022-12-19T11:14:34.667Z,1028.8
2022-12-19T11:18:09.950Z,1028.8
2022-12-19T11:21:01.545Z,1028.8
2022-12-19T11:23:47.977Z,1028.9
2022-12-19T11:27:57.683Z,1028.9
2022-12-19T11:29:29.332Z,1028.9
2022-12-19T11:30:21.823Z,1029
2022-12-19T11:30:23.202Z,1029
2022-12-19T11:32:20.963Z,1029.1
2022-12-19T11:33:38.719Z,1029.1
2022-12-19T11:35:38.623Z,1029.1
2022-12-19T11:37:38.557Z,1029.1
2022-12-19T11:39:38.572Z,1029.2
2022-12-19T11:41:38.613Z,1029.2
2022-12-19T11:43:46.041Z,1029.3
2022-12-19T11:45:38.528Z,1029.3
2022-12-19T11:47:38.614Z,1029.3
2022-12-19T11:49:38.682Z,1029.3
2022-12-19T11:51:38.558Z,1029.3
2022-12-19T11:53:38.518Z,1029.4
2022-12-19T11:55:38.566Z,1029.4
2022-12-19T11:57:38.595Z,1029.4
2022-12-19T11:59:38.667Z,1029.4
2022-12-19T12:01:38.710Z,1029.4
2022-12-19T12:03:41.133Z,1029.4
2022-12-19T12:05:38.558Z,1029.4
2022-12-19T12:07:52.076Z,1029.5
2022-12-19T12:10:36.917Z,1029.5
2022-12-19T12:14:04.526Z,1029.5
2022-12-19T12:18:39.893Z,1029.6
2022-12-19T12:21:54.524Z,1029.6
2022-12-19T12:22:47.363Z,1029.6
2022-12-19T12:27:31.670Z,1029.6
2022-12-19T12:28:52.493Z,1029.6
2022-12-19T12:31:32.766Z,1029.7
2022-12-19T12:31:32.919Z,1029.7
2022-12-19T12:31:34.117Z,1029.7
2022-12-19T12:31:37.211Z,1029.7
2022-12-19T12:35:07.785Z,1029.8
2022-12-19T12:35:25.809Z,1029.7
2022-12-19T12:36:49.454Z,1029.8
2022-12-19T12:38:18.556Z,1029.9
2022-12-19T12:39:38.503Z,1029.9
2022-12-19T12:41:40.011Z,1030
2022-12-19T12:43:39.910Z,1030
2022-12-19T12:45:38.606Z,1030
2022-12-19T12:47:38.536Z,1030
2022-12-19T12:49:38.572Z,1030.1
2022-12-19T12:51:38.540Z,1030.1
2022-12-19T12:53:38.488Z,1030.2
2022-12-19T12:55:38.525Z,1030.2
2022-12-19T12:57:38.594Z,1030.2
2022-12-19T12:59:38.562Z,1030.3
2022-12-19T13:01:38.626Z,1030.3
2022-12-19T13:03:38.628Z,1030.2
2022-12-19T13:05:38.511Z,1030.2
2022-12-19T13:07:38.518Z,1030.2
2022-12-19T13:09:38.482Z,1030.2
2022-12-19T13:11:38.545Z,1030.2
2022-12-19T13:13:38.475Z,1030.1
2022-12-19T13:15:38.498Z,1030.2
2022-12-19T13:17:38.458Z,1030.2
2022-12-19T13:19:38.461Z,1030.2
2022-12-19T13:21:38.437Z,1030.3
2022-12-19T13:23:38.441Z,1030.3
2022-12-19T13:25:38.451Z,1030.3
2022-12-19T13:27:38.455Z,1030.3
2022-12-19T13:29:38.471Z,1030.4
2022-12-19T13:31:38.497Z,1030.4
2022-12-19T13:33:38.460Z,1030.4
2022-12-19T13:36:28.588Z,1030.4
2022-12-19T13:39:47.555Z,1030.4
2022-12-19T13:39:53.389Z,1030.5
2022-12-19T13:41:38.607Z,1030.5
2022-12-19T13:43:38.428Z,1030.5
2022-12-19T13:45:38.462Z,1030.5
2022-12-19T13:47:39.617Z,1030.6
2022-12-19T13:49:38.492Z,1030.6
2022-12-19T13:51:38.420Z,1030.6
2022-12-19T13:53:38.427Z,1030.6
2022-12-19T13:55:38.396Z,1030.6
2022-12-19T13:57:38.435Z,1030.5
2022-12-19T13:59:38.419Z,1030.6
2022-12-19T14:01:38.547Z,1030.6
2022-12-19T14:03:38.570Z,1030.6
2022-12-19T14:06:15.406Z,1030.6
2022-12-19T14:07:38.515Z,1030.6
2022-12-19T14:11:24.187Z,1030.6
2022-12-19T14:11:51.421Z,1030.7
2022-12-19T14:13:48.770Z,1030.7
2022-12-19T14:15:38.445Z,1030.7
2022-12-19T14:17:38.409Z,1030.8
2022-12-19T14:19:38.375Z,1030.7
2022-12-19T14:22:03.414Z,1030.8
2022-12-19T14:23:43.212Z,1030.8
2022-12-19T14:27:14.233Z,1030.8
2022-12-19T14:28:22.700Z,1030.9
2022-12-19T14:29:45.657Z,1030.9
2022-12-19T14:31:38.378Z,1030.9
2022-12-19T14:33:41.605Z,1031
2022-12-19T14:36:09.359Z,1031
2022-12-19T14:38:12.695Z,1031.1
2022-12-19T14:39:39.618Z,1031.1
2022-12-19T14:41:38.390Z,1031.1
2022-12-19T14:43:58.212Z,1031.1
2022-12-19T14:50:16.919Z,1031.2
2022-12-19T14:50:16.940Z,1031.2
2022-12-19T14:53:10.932Z,1031.3
2022-12-19T14:53:34.462Z,1031.3
2022-12-19T14:54:19.770Z,1031.3
2022-12-19T14:56:11.848Z,1031.3
2022-12-19T14:58:51.867Z,1031.3
2022-12-19T14:59:38.368Z,1031.3
2022-12-19T15:01:38.438Z,1031.3
2022-12-19T15:03:38.395Z,1031.3
2022-12-19T15:05:38.331Z,1031.3
2022-12-19T15:07:38.330Z,1031.3
2022-12-19T15:11:02.194Z,1031.3
2022-12-19T15:11:53.545Z,1031.3
2022-12-19T15:14:49.960Z,1031.3
2022-12-19T15:15:38.328Z,1031.4
2022-12-19T15:17:38.312Z,1031.3
2022-12-19T15:19:38.285Z,1031.3
2022-12-19T15:21:38.283Z,1031.3
2022-12-19T15:23:38.347Z,1031.3
2022-12-19T15:26:03.112Z,1031.2
2022-12-19T15:27:39.471Z,1031.2
2022-12-19T15:29:38.300Z,1031.2
2022-12-19T15:31:38.729Z,1031.2
2022-12-19T15:33:44.048Z,1031.1
2022-12-19T15:35:38.318Z,1031.1
2022-12-19T15:37:38.269Z,1031
2022-12-19T15:39:38.344Z,1031.1
2022-12-19T15:41:38.364Z,1031
2022-12-19T15:44:02.910Z,1031.1
2022-12-19T15:45:38.356Z,1031.1
2022-12-19T15:47:38.262Z,1031
2022-12-19T15:49:38.283Z,1031
2022-12-19T15:51:38.333Z,1031
2022-12-19T15:53:40.907Z,1031
2022-12-19T15:55:39.697Z,1030.9
2022-12-19T15:57:38.260Z,1030.9
2022-12-19T15:59:38.630Z,1030.9
2022-12-19T16:01:38.321Z,1030.9
2022-12-19T16:03:38.385Z,1030.8
2022-12-19T16:05:38.343Z,1030.7
2022-12-19T16:07:38.263Z,1030.7
2022-12-19T16:09:38.267Z,1030.7
2022-12-19T16:11:38.238Z,1030.6
2022-12-19T16:13:38.261Z,1030.6
2022-12-19T16:15:38.233Z,1030.6
2022-12-19T16:17:39.546Z,1030.6
2022-12-19T16:19:38.231Z,1030.5
2022-12-19T16:21:38.242Z,1030.5
2022-12-19T16:23:38.265Z,1030.4
2022-12-19T16:25:38.279Z,1030.4
2022-12-19T16:27:38.261Z,1030.4
2022-12-19T16:29:41.782Z,1030.4
2022-12-19T16:31:38.364Z,1030.4
2022-12-19T16:33:38.274Z,1030.3
2022-12-19T16:36:03.451Z,1030.3
2022-12-19T16:37:38.175Z,1030.3
2022-12-19T16:39:38.194Z,1030.2
2022-12-19T16:41:41.885Z,1030.2
2022-12-19T16:43:38.202Z,1030.2
2022-12-19T16:45:38.201Z,1030.2
2022-12-19T16:47:38.181Z,1030.2
2022-12-19T16:49:38.198Z,1030.2
2022-12-19T16:51:38.191Z,1030.2
2022-12-19T16:53:38.490Z,1030.1
2022-12-19T16:55:38.181Z,1030.1
2022-12-19T16:57:38.248Z,1030.1
2022-12-19T16:59:39.577Z,1030.1
2022-12-19T17:01:38.324Z,1030
2022-12-19T17:03:38.251Z,1030
2022-12-19T17:05:38.271Z,1030
2022-12-19T17:07:38.167Z,1030
2022-12-19T17:09:38.169Z,1030
2022-12-19T17:11:38.160Z,1030
2022-12-19T17:13:39.232Z,1030
2022-12-19T17:15:38.170Z,1029.9
2022-12-19T17:17:38.134Z,1029.9
2022-12-19T17:19:38.224Z,1029.9
2022-12-19T17:21:38.159Z,1029.9
2022-12-19T17:23:38.260Z,1029.9
2022-12-19T17:25:38.120Z,1029.9
2022-12-19T17:27:38.237Z,1029.9
2022-12-19T17:29:38.151Z,1029.8
2022-12-19T17:31:38.377Z,1029.7
2022-12-19T17:33:39.361Z,1029.7
2022-12-19T17:35:38.163Z,1029.6
2022-12-19T17:37:38.118Z,1029.6
2022-12-19T17:39:38.199Z,1029.6
2022-12-19T17:41:38.122Z,1029.5
2022-12-19T17:43:38.189Z,1029.5
2022-12-19T17:45:38.146Z,1029.4
2022-12-19T17:47:38.056Z,1029.4
2022-12-19T17:49:38.108Z,1029.3
2022-12-19T17:51:38.129Z,1029.2
2022-12-19T17:53:38.158Z,1029.2
2022-12-19T17:55:38.137Z,1029.1
2022-12-19T17:57:38.066Z,1029.1
2022-12-19T17:59:38.076Z,1029.1
2022-12-19T18:01:38.271Z,1029.1
2022-12-19T18:03:38.163Z,1029.1
2022-12-19T18:05:38.089Z,1029.1
2022-12-19T18:07:38.071Z,1029.1
2022-12-19T18:09:38.127Z,1029
2022-12-19T18:11:41.743Z,1029
2022-12-19T18:13:38.143Z,1029
2022-12-19T18:15:38.087Z,1029
2022-12-19T18:17:38.070Z,1028.8
2022-12-19T18:19:38.077Z,1028.8
2022-12-19T18:21:38.080Z,1028.8
2022-12-19T18:23:38.082Z,1028.8
2022-12-19T18:25:40.885Z,1028.8
2022-12-19T18:27:38.033Z,1028.8
2022-12-19T18:29:38.074Z,1028.8
2022-12-19T18:31:38.057Z,1028.9
2022-12-19T18:33:39.484Z,1028.9
2022-12-19T18:35:38.064Z,1028.9
2022-12-19T18:37:39.298Z,1028.9
2022-12-19T18:39:38.000Z,1029
2022-12-19T18:41:37.992Z,1029.1
2022-12-19T18:43:38.038Z,1029.1
2022-12-19T18:45:38.019Z,1029.1
2022-12-19T18:47:37.995Z,1029.1
2022-12-19T18:49:38.025Z,1029
2022-12-19T18:51:38.052Z,1029
2022-12-19T18:53:38.000Z,1029
2022-12-19T18:55:44.074Z,1029
2022-12-19T18:57:38.029Z,1029
2022-12-19T18:59:38.068Z,1028.9
2022-12-19T19:01:39.434Z,1028.9
2022-12-19T19:03:38.097Z,1028.9
2022-12-19T19:05:38.072Z,1028.9
2022-12-19T19:07:37.966Z,1028.8
2022-12-19T19:09:37.995Z,1028.8
2022-12-19T19:11:38.021Z,1028.8
2022-12-19T19:13:38.030Z,1028.7
2022-12-19T19:15:38.051Z,1028.7
2022-12-19T19:17:37.950Z,1028.8
2022-12-19T19:19:37.981Z,1028.8
2022-12-19T19:21:37.992Z,1028.8
2022-12-19T19:23:37.979Z,1028.9
2022-12-19T19:25:37.977Z,1028.9
2022-12-19T19:27:37.983Z,1028.9
2022-12-19T19:29:37.954Z,1029
2022-12-19T19:31:38.087Z,1029.1
2022-12-19T19:33:37.997Z,1029.1
2022-12-19T19:35:37.970Z,1029.1
2022-12-19T19:37:39.169Z,1029.1
2022-12-19T19:39:37.992Z,1029.1
2022-12-19T19:41:38.284Z,1029.1
2022-12-19T19:43:37.945Z,1029.1
2022-12-19T19:45:42.906Z,1029.2
2022-12-19T19:47:37.931Z,1029.2
2022-12-19T19:49:37.981Z,1029.3
2022-12-19T19:51:37.983Z,1029.2
2022-12-19T19:53:37.984Z,1029.2
2022-12-19T19:55:37.935Z,1029.2
2022-12-19T19:57:37.962Z,1029.2
2022-12-19T19:59:37.938Z,1029.1
2022-12-19T20:01:38.077Z,1029.2
2022-12-19T20:03:40.752Z,1029.2
2022-12-19T20:05:39.107Z,1029.1
2022-12-19T20:07:37.938Z,1029.1
2022-12-19T20:09:37.923Z,1029.1
2022-12-19T20:11:48.433Z,1029.1
2022-12-19T20:13:37.942Z,1029.1
2022-12-19T20:15:43.050Z,1029
2022-12-19T20:17:39.109Z,1029.1
2022-12-19T20:19:37.912Z,1029.1
2022-12-19T20:21:37.893Z,1029
2022-12-19T20:23:37.959Z,1029.1
2022-12-19T20:25:37.896Z,1029.1
2022-12-19T20:27:37.909Z,1029
2022-12-19T20:29:37.903Z,1028.9
2022-12-19T20:31:37.894Z,1028.8
2022-12-19T20:33:37.961Z,1028.8
2022-12-19T20:35:37.953Z,1028.9
2022-12-19T20:37:38.941Z,1028.9
2022-12-19T20:39:37.902Z,1028.8
2022-12-19T20:41:37.853Z,1028.8
2022-12-19T20:43:37.886Z,1028.7
2022-12-19T20:45:37.902Z,1028.7
2022-12-19T20:47:40.444Z,1028.8
2022-12-19T20:49:37.875Z,1028.7
2022-12-19T20:51:37.899Z,1028.6
2022-12-19T20:53:37.879Z,1028.7
2022-12-19T20:55:37.896Z,1028.7
2022-12-19T20:57:37.898Z,1028.8
2022-12-19T20:59:37.877Z,1028.9
2022-12-19T21:01:38.012Z,1028.8
2022-12-19T21:03:38.236Z,1028.8
2022-12-19T21:05:37.863Z,1028.9
2022-12-19T21:07:37.949Z,1028.9
2022-12-19T21:09:37.863Z,1028.9
2022-12-19T21:11:37.838Z,1028.9
2022-12-19T21:13:37.899Z,1028.8
2022-12-19T21:15:37.910Z,1028.7
2022-12-19T21:17:37.845Z,1028.6
2022-12-19T21:19:37.860Z,1028.6
2022-12-19T21:21:37.848Z,1028.6
2022-12-19T21:23:37.840Z,1028.5
2022-12-19T21:25:37.839Z,1028.6
2022-12-19T21:27:37.811Z,1028.7
2022-12-19T21:29:37.814Z,1028.7
2022-12-19T21:31:37.928Z,1028.8
2022-12-19T21:33:37.828Z,1028.8
2022-12-19T21:35:37.832Z,1028.9
2022-12-19T21:37:43.254Z,1028.9
2022-12-19T21:39:37.812Z,1028.9
2022-12-19T21:41:37.875Z,1028.9
2022-12-19T21:43:37.825Z,1028.9
2022-12-19T21:45:37.812Z,1028.9
2022-12-19T21:47:37.813Z,1029
2022-12-19T21:49:37.790Z,1029.1
2022-12-19T21:51:39.244Z,1029.1
2022-12-19T21:53:37.838Z,1029
2022-12-19T21:55:37.801Z,1028.8
2022-12-19T21:57:37.760Z,1028.8
2022-12-19T21:59:37.806Z,1028.9
2022-12-19T22:01:37.970Z,1028.9
2022-12-19T22:03:37.976Z,1028.8
2022-12-19T22:05:37.802Z,1028.8
2022-12-19T22:07:37.762Z,1028.8
2022-12-19T22:09:37.815Z,1028.8
2022-12-19T22:11:37.732Z,1029
2022-12-19T22:13:37.825Z,1029.1
2022-12-19T22:15:37.750Z,1029.1
2022-12-19T22:17:37.725Z,1029.1
2022-12-19T22:19:37.740Z,1029.2
2022-12-19T22:21:37.776Z,1029.3
2022-12-19T22:23:37.738Z,1029.5
2022-12-19T22:25:37.826Z,1029.6
2022-12-19T22:27:37.780Z,1029.7
2022-12-19T22:29:37.773Z,1029.7
2022-12-19T22:31:37.791Z,1029.8
2022-12-19T22:33:37.737Z,1029.8
2022-12-19T22:35:37.731Z,1029.8
2022-12-19T22:37:37.755Z,1029.7
2022-12-19T22:39:43.367Z,1029.7
2022-12-19T22:41:37.721Z,1029.7
2022-12-19T22:43:37.735Z,1029.7
2022-12-19T22:45:37.787Z,1029.7
2022-12-19T22:47:37.733Z,1029.6
2022-12-19T22:49:37.719Z,1029.6
2022-12-19T22:51:37.709Z,1029.6
2022-12-19T22:53:37.723Z,1029.7
2022-12-19T22:55:37.730Z,1029.7
2022-12-19T22:57:37.762Z,1029.7
2022-12-19T22:59:37.751Z,1029.8
2022-12-19T23:01:37.826Z,1029.8
2022-12-19T23:03:37.784Z,1029.7
2022-12-19T23:05:39.065Z,1029.7
2022-12-19T23:07:37.693Z,1029.7
2022-12-19T23:09:37.694Z,1029.8
2022-12-19T23:11:37.715Z,1029.8
2022-12-19T23:13:37.695Z,1029.8
2022-12-19T23:15:37.713Z,1029.8
2022-12-19T23:17:37.763Z,1029.8
2022-12-19T23:19:37.665Z,1029.9
2022-12-19T23:21:37.688Z,1030
2022-12-19T23:23:37.685Z,1030
2022-12-19T23:25:37.684Z,1030
2022-12-19T23:27:37.662Z,1030
2022-12-19T23:29:37.735Z,1030
2022-12-19T23:31:37.752Z,1029.9
2022-12-19T23:33:37.685Z,1029.9
2022-12-19T23:35:37.651Z,1029.9
2022-12-19T23:37:37.643Z,1030
2022-12-19T23:39:37.639Z,1030
2022-12-19T23:41:37.636Z,1030.1
2022-12-19T23:43:37.627Z,1030.1
2022-12-19T23:45:37.714Z,1030.1
2022-12-19T23:47:37.640Z,1030.1
2022-12-19T23:49:37.639Z,1030.1
2022-12-19T23:51:37.659Z,1030.1
2022-12-19T23:53:37.647Z,1030.2
2022-12-19T23:55:37.608Z,1030.2
2022-12-19T23:57:37.638Z,1030.2
2022-12-19T23:59:37.634Z,1030.1
